createdAt,value
2022-08-24T00:01:58.743Z,3.27
2022-08-24T00:04:28.294Z,2.13
2022-08-24T00:07:02.125Z,1.57
2022-08-24T00:09:33.040Z,2.23
2022-08-24T00:12:01.830Z,1.30
2022-08-24T00:14:29.942Z,1.30
2022-08-24T00:16:58.721Z,1.40
2022-08-24T00:19:28.125Z,2.00
2022-08-24T00:21:56.488Z,3.50
2022-08-24T00:24:24.861Z,2.70
2022-08-24T00:26:58.113Z,1.50
2022-08-24T00:29:26.294Z,2.43
2022-08-24T00:31:54.733Z,2.07
2022-08-24T00:34:22.862Z,2.47
2022-08-24T00:36:51.126Z,1.97
2022-08-24T00:39:19.295Z,1.53
2022-08-24T00:41:50.073Z,1.60
2022-08-24T00:44:21.139Z,1.77
2022-08-24T00:46:54.363Z,2.90
2022-08-24T00:49:29.285Z,3.90
2022-08-24T00:52:04.619Z,1.83
2022-08-24T00:54:42.804Z,1.70
2022-08-24T00:57:18.024Z,3.20
2022-08-24T00:59:51.666Z,1.87
2022-08-24T01:02:23.670Z,2.03
2022-08-24T01:04:55.332Z,2.17
2022-08-24T01:07:24.182Z,1.53
2022-08-24T01:09:54.147Z,1.60
2022-08-24T01:12:25.266Z,2.50
2022-08-24T01:14:55.477Z,2.10
2022-08-24T01:17:42.084Z,2.00
2022-08-24T01:20:12.523Z,2.93
2022-08-24T01:22:53.496Z,2.07
2022-08-24T01:25:24.871Z,3.03
2022-08-24T01:28:00.274Z,3.40
2022-08-24T01:30:36.298Z,2.50
2022-08-24T01:33:07.287Z,2.57
2022-08-24T01:35:37.279Z,2.37
2022-08-24T01:38:09.556Z,2.30
2022-08-24T01:40:43.471Z,3.20
2022-08-24T01:43:14.996Z,2.63
2022-08-24T01:45:43.735Z,1.80
2022-08-24T01:48:13.775Z,2.13
2022-08-24T01:50:42.319Z,2.33
2022-08-24T01:53:11.226Z,1.93
2022-08-24T01:55:41.827Z,3.17
2022-08-24T01:58:10.228Z,2.13
2022-08-24T02:00:38.692Z,2.57
2022-08-24T02:03:07.406Z,3.40
2022-08-24T02:05:36.403Z,2.90
2022-08-24T02:08:05.147Z,3.57
2022-08-24T02:10:33.780Z,2.40
2022-08-24T02:13:04.804Z,2.37
2022-08-24T02:15:35.863Z,3.33
2022-08-24T02:18:05.094Z,4.80
2022-08-24T02:20:33.306Z,1.53
2022-08-24T02:23:01.962Z,1.77
2022-08-24T02:25:30.750Z,3.30
2022-08-24T02:27:59.540Z,1.70
2022-08-24T02:30:29.776Z,1.90
2022-08-24T02:32:59.007Z,3.20
2022-08-24T02:35:28.324Z,2.43
2022-08-24T02:37:56.858Z,2.83
2022-08-24T02:40:25.399Z,2.13
2022-08-24T02:42:53.907Z,2.47
2022-08-24T02:45:22.990Z,2.43
2022-08-24T02:47:52.756Z,2.03
2022-08-24T02:50:23.188Z,1.80
2022-08-24T02:52:51.367Z,2.60
2022-08-24T02:55:20.654Z,3.57
2022-08-24T02:57:52.068Z,2.50
2022-08-24T03:00:22.813Z,2.60
2022-08-24T03:02:56.415Z,1.83
2022-08-24T03:05:28.212Z,4.80
2022-08-24T03:07:57.452Z,4.30
2022-08-24T03:10:26.847Z,2.63
2022-08-24T03:13:00.921Z,3.00
2022-08-24T03:15:29.516Z,2.10
2022-08-24T03:17:59.383Z,2.30
2022-08-24T03:20:28.148Z,2.60
2022-08-24T03:22:58.017Z,1.80
2022-08-24T03:25:27.996Z,2.50
2022-08-24T03:27:58.375Z,2.53
2022-08-24T03:30:26.974Z,2.10
2022-08-24T03:32:55.506Z,2.83
2022-08-24T03:35:25.204Z,2.40
2022-08-24T03:37:54.722Z,4.30
2022-08-24T03:40:24.721Z,2.13
2022-08-24T03:42:56.946Z,2.93
2022-08-24T03:45:25.304Z,3.37
2022-08-24T03:47:53.912Z,3.00
2022-08-24T03:50:22.622Z,2.57
2022-08-24T03:52:53.147Z,2.97
2022-08-24T03:55:21.493Z,2.93
2022-08-24T03:57:49.540Z,2.87
2022-08-24T04:00:18.216Z,3.33
2022-08-24T04:02:55.471Z,3.30
2022-08-24T04:05:26.016Z,2.50
2022-08-24T04:07:55.608Z,4.70
2022-08-24T04:10:25.275Z,3.33
2022-08-24T04:12:54.937Z,4.93
2022-08-24T04:15:25.188Z,4.20
2022-08-24T04:17:53.577Z,5.47
2022-08-24T04:20:21.791Z,5.60
2022-08-24T04:22:59.027Z,4.33
2022-08-24T04:25:29.243Z,4.40
2022-08-24T04:27:58.720Z,4.77
2022-08-24T04:30:26.853Z,3.70
2022-08-24T04:33:15.839Z,3.00
2022-08-24T04:35:47.957Z,3.63
2022-08-24T04:38:18.623Z,3.80
2022-08-24T04:41:04.351Z,3.73
2022-08-24T04:43:33.278Z,3.13
2022-08-24T04:46:01.901Z,3.27
2022-08-24T04:48:30.103Z,4.23
2022-08-24T04:51:03.109Z,3.97
2022-08-24T04:53:31.296Z,4.80
2022-08-24T04:56:01.812Z,3.73
2022-08-24T04:58:32.714Z,3.23
2022-08-24T05:01:01.085Z,5.03
2022-08-24T05:03:29.218Z,4.77
2022-08-24T05:05:57.318Z,3.90
2022-08-24T05:08:25.407Z,5.70
2022-08-24T05:10:54.949Z,3.80
2022-08-24T05:13:25.154Z,4.33
2022-08-24T05:15:56.310Z,3.17
2022-08-24T05:18:24.427Z,5.00
2022-08-24T05:20:53.335Z,3.30
2022-08-24T05:23:21.536Z,3.40
2022-08-24T05:25:50.100Z,3.57
2022-08-24T05:28:18.203Z,6.13
2022-08-24T05:30:47.805Z,3.67
2022-08-24T05:33:19.580Z,4.10
2022-08-24T05:35:47.796Z,3.70
2022-08-24T05:38:18.160Z,5.27
2022-08-24T05:40:46.444Z,5.17
2022-08-24T05:43:14.652Z,3.13
2022-08-24T05:45:44.282Z,4.57
2022-08-24T05:48:14.370Z,4.60
2022-08-24T05:51:01.189Z,7.30
2022-08-24T05:53:35.127Z,2.90
2022-08-24T05:56:05.932Z,6.83
2022-08-24T05:58:41.475Z,6.80
2022-08-24T06:01:11.945Z,4.07
2022-08-24T06:03:43.270Z,3.50
2022-08-24T06:06:16.234Z,3.07
2022-08-24T06:08:48.043Z,5.00
2022-08-24T06:11:24.736Z,7.73
2022-08-24T06:14:01.522Z,5.43
2022-08-24T06:16:32.365Z,5.20
2022-08-24T06:19:02.020Z,7.53
2022-08-24T06:21:31.374Z,6.47
2022-08-24T06:24:00.024Z,6.57
2022-08-24T06:26:49.882Z,8.00
2022-08-24T06:29:20.009Z,9.57
2022-08-24T06:31:54.588Z,6.97
2022-08-24T06:34:26.725Z,6.17
2022-08-24T06:36:55.186Z,5.80
2022-08-24T06:39:25.660Z,6.20
2022-08-24T06:41:56.040Z,8.30
2022-08-24T06:44:31.896Z,7.00
2022-08-24T06:47:11.307Z,4.80
2022-08-24T06:49:42.043Z,7.30
2022-08-24T06:52:11.493Z,8.03
2022-08-24T06:54:40.309Z,9.40
2022-08-24T06:57:09.010Z,9.23
2022-08-24T06:59:37.252Z,4.50
2022-08-24T07:02:06.494Z,5.07
2022-08-24T07:04:35.626Z,4.83
2022-08-24T07:11:45.175Z,6.33
2022-08-24T07:14:13.699Z,3.33
2022-08-24T07:16:43.058Z,4.30
2022-08-24T07:19:23.236Z,4.77
2022-08-24T07:21:57.937Z,5.40
2022-08-24T07:24:29.749Z,4.87
2022-08-24T07:27:00.161Z,5.00
2022-08-24T07:29:48.455Z,3.83
2022-08-24T07:32:17.932Z,3.40
2022-08-24T07:34:47.352Z,3.47
2022-08-24T07:37:16.115Z,3.10
2022-08-24T07:39:48.228Z,3.10
2022-08-24T07:42:29.532Z,1.97
2022-08-24T07:45:00.967Z,3.63
2022-08-24T07:47:40.503Z,4.60
2022-08-24T07:50:24.020Z,4.40
2022-08-24T07:52:52.765Z,3.30
2022-08-24T07:55:21.372Z,2.93
2022-08-24T07:57:53.597Z,3.53
2022-08-24T08:00:23.407Z,4.33
2022-08-24T08:02:57.546Z,4.13
2022-08-24T08:05:26.494Z,7.70
2022-08-24T08:07:56.978Z,2.93
2022-08-24T08:10:25.718Z,2.77
2022-08-24T08:12:56.685Z,2.93
2022-08-24T08:15:26.666Z,2.97
2022-08-24T08:18:01.953Z,2.83
2022-08-24T08:20:31.749Z,2.90
2022-08-24T08:23:20.985Z,3.17
2022-08-24T08:26:14.031Z,2.60
2022-08-24T08:28:58.455Z,3.40
2022-08-24T08:31:29.332Z,2.57
2022-08-24T08:34:02.517Z,3.53
2022-08-24T08:36:34.242Z,2.23
2022-08-24T08:39:03.902Z,2.90
2022-08-24T08:42:13.255Z,3.63
2022-08-24T08:45:09.777Z,2.80
2022-08-24T08:48:10.685Z,2.30
2022-08-24T08:50:58.632Z,2.90
2022-08-24T08:54:01.589Z,3.00
2022-08-24T08:56:36.590Z,2.23
2022-08-24T08:59:16.278Z,2.23
2022-08-24T09:02:08.316Z,1.67
2022-08-24T09:04:57.904Z,1.90
2022-08-24T09:07:40.569Z,2.47
2022-08-24T09:10:42.284Z,1.77
2022-08-24T09:13:24.372Z,2.87
2022-08-24T09:16:24.812Z,5.47
2022-08-24T09:19:17.241Z,1.90
2022-08-24T09:22:04.688Z,1.70
2022-08-24T09:24:57.110Z,3.80
2022-08-24T09:27:52.341Z,2.07
2022-08-24T09:30:24.302Z,1.80
2022-08-24T09:33:07.859Z,1.97
2022-08-24T09:36:07.663Z,2.87
2022-08-24T09:38:59.390Z,2.73
2022-08-24T09:42:00.804Z,1.80
2022-08-24T09:44:59.089Z,2.90
2022-08-24T09:48:03.690Z,2.10
2022-08-24T09:51:17.192Z,2.70
2022-08-24T09:54:17.711Z,3.83
2022-08-24T09:57:11.588Z,2.23
2022-08-24T10:00:30.162Z,1.70
2022-08-24T10:03:36.174Z,6.10
2022-08-24T10:06:21.476Z,1.73
2022-08-24T10:09:24.060Z,2.80
2022-08-24T10:12:02.302Z,3.70
2022-08-24T10:14:46.211Z,3.03
2022-08-24T10:17:21.348Z,1.60
2022-08-24T10:20:01.702Z,1.63
2022-08-24T10:22:47.775Z,2.00
2022-08-24T10:25:31.595Z,1.50
2022-08-24T10:28:25.514Z,2.17
2022-08-24T10:31:12.081Z,1.77
2022-08-24T10:33:57.246Z,1.60
2022-08-24T10:36:54.748Z,1.57
2022-08-24T10:39:56.013Z,1.77
2022-08-24T10:43:06.231Z,1.77
2022-08-24T10:45:58.488Z,1.23
2022-08-24T10:48:54.554Z,1.83
2022-08-24T10:51:36.361Z,1.60
2022-08-24T10:54:06.636Z,1.90
2022-08-24T10:56:42.595Z,1.50
2022-08-24T10:59:24.083Z,1.30
2022-08-24T11:02:28.895Z,1.40
2022-08-24T11:04:58.851Z,1.55
2022-08-24T11:07:27.945Z,2.20
2022-08-24T11:10:00.012Z,1.38
2022-08-24T11:12:31.267Z,1.40
2022-08-24T11:15:01.982Z,1.52
2022-08-24T11:17:35.514Z,1.75
2022-08-24T11:20:04.820Z,1.35
2022-08-24T11:22:38.009Z,3.20
2022-08-24T11:25:16.091Z,1.55
2022-08-24T11:27:47.827Z,2.03
2022-08-24T11:30:26.788Z,1.60
2022-08-24T11:33:01.375Z,1.65
2022-08-24T11:35:38.272Z,1.73
2022-08-24T11:38:14.961Z,2.13
2022-08-24T11:40:51.317Z,1.70
2022-08-24T11:43:49.146Z,2.28
2022-08-24T11:46:29.798Z,1.70
2022-08-24T11:49:09.287Z,2.00
2022-08-24T11:51:44.563Z,1.65
2022-08-24T11:54:24.678Z,2.40
2022-08-24T11:57:08.639Z,1.70
2022-08-24T11:59:45.971Z,1.50
2022-08-24T12:02:19.614Z,1.30
2022-08-24T12:04:56.435Z,1.55
2022-08-24T12:07:44.670Z,1.40
2022-08-24T12:10:30.855Z,1.50
2022-08-24T12:13:05.680Z,1.40
2022-08-24T12:15:43.733Z,1.50
2022-08-24T12:18:26.033Z,2.88
2022-08-24T12:20:57.273Z,2.10
2022-08-24T12:23:32.650Z,1.58
2022-08-24T12:26:04.457Z,1.75
2022-08-24T12:28:38.461Z,1.40
2022-08-24T12:31:14.118Z,1.60
2022-08-24T12:33:49.697Z,1.80
2022-08-24T12:36:29.332Z,1.98
2022-08-24T12:39:07.413Z,1.42
2022-08-24T12:41:39.255Z,1.77
2022-08-24T12:44:12.738Z,1.38
2022-08-24T12:46:44.615Z,1.40
2022-08-24T12:49:20.727Z,1.15
2022-08-24T12:52:11.681Z,0.90
2022-08-24T12:55:01.005Z,2.00
2022-08-24T12:57:51.745Z,1.20
2022-08-24T13:00:28.226Z,1.20
2022-08-24T13:03:00.132Z,1.57
2022-08-24T13:05:41.830Z,1.57
2022-08-24T13:08:20.773Z,1.43
2022-08-24T13:11:01.035Z,2.40
2022-08-24T13:13:46.104Z,1.27
2022-08-24T13:16:49.596Z,1.60
2022-08-24T13:19:33.587Z,2.13
2022-08-24T13:22:22.500Z,1.27
2022-08-24T13:25:02.701Z,1.23
2022-08-24T13:28:01.561Z,1.53
2022-08-24T13:30:38.210Z,1.20
2022-08-24T13:33:13.359Z,1.40
2022-08-24T13:35:58.239Z,1.33
2022-08-24T13:39:00.432Z,1.20
2022-08-24T13:41:49.455Z,1.57
2022-08-24T13:44:39.019Z,1.30
2022-08-24T13:47:16.895Z,2.30
2022-08-24T13:50:02.053Z,1.50
2022-08-24T13:52:41.552Z,1.20
2022-08-24T13:55:31.930Z,1.70
2022-08-24T13:58:14.390Z,2.40
2022-08-24T14:00:46.685Z,1.20
2022-08-24T14:03:53.835Z,1.20
2022-08-24T14:06:48.890Z,1.60
2022-08-24T14:09:28.689Z,1.60
2022-08-24T14:12:27.690Z,1.60
2022-08-24T14:15:07.812Z,1.73
2022-08-24T14:18:02.130Z,2.10
2022-08-24T14:21:02.547Z,1.20
2022-08-24T14:23:56.354Z,1.60
2022-08-24T14:27:00.895Z,1.87
2022-08-24T14:29:33.262Z,1.70
2022-08-24T14:32:41.884Z,1.40
2022-08-24T14:35:44.288Z,1.37
2022-08-24T14:38:49.690Z,1.77
2022-08-24T14:41:41.851Z,1.27
2022-08-24T14:44:19.863Z,1.60
2022-08-24T14:47:00.666Z,1.63
2022-08-24T14:49:39.142Z,3.63
2022-08-24T14:52:27.320Z,1.60
2022-08-24T14:55:09.588Z,1.70
2022-08-24T14:58:15.532Z,1.23
2022-08-24T15:01:08.086Z,1.40
2022-08-24T15:04:01.376Z,1.63
2022-08-24T15:06:39.007Z,1.43
2022-08-24T15:09:11.524Z,1.80
2022-08-24T15:11:42.521Z,1.40
2022-08-24T15:14:26.008Z,2.03
2022-08-24T15:17:09.487Z,1.70
2022-08-24T15:19:50.760Z,1.30
2022-08-24T15:22:30.454Z,1.57
2022-08-24T15:25:05.996Z,1.50
2022-08-24T15:27:44.264Z,1.57
2022-08-24T15:30:22.706Z,2.30
2022-08-24T15:32:55.791Z,1.40
2022-08-24T15:35:29.324Z,1.80
2022-08-24T15:37:58.866Z,4.03
2022-08-24T15:40:30.419Z,1.60
2022-08-24T15:43:00.736Z,1.40
2022-08-24T15:45:29.439Z,1.40
2022-08-24T15:48:02.247Z,1.40
2022-08-24T15:50:34.492Z,1.80
2022-08-24T15:53:05.885Z,1.40
2022-08-24T15:55:40.500Z,1.17
2022-08-24T15:58:28.047Z,1.43
2022-08-24T16:01:19.412Z,1.40
2022-08-24T16:03:52.821Z,1.57
2022-08-24T16:06:26.127Z,2.70
2022-08-24T16:09:03.660Z,1.33
2022-08-24T16:11:38.289Z,2.70
2022-08-24T16:14:11.876Z,1.50
2022-08-24T16:16:43.965Z,1.73
2022-08-24T16:19:24.989Z,1.50
2022-08-24T16:21:58.528Z,4.60
2022-08-24T16:24:33.840Z,1.73
2022-08-24T16:27:07.220Z,1.33
2022-08-24T16:29:50.318Z,1.83
2022-08-24T16:32:31.481Z,1.47
2022-08-24T16:35:20.795Z,1.50
2022-08-24T16:37:49.473Z,2.63
2022-08-24T16:40:20.239Z,1.30
2022-08-24T16:42:49.000Z,1.50
2022-08-24T16:45:20.465Z,1.90
2022-08-24T16:47:49.547Z,1.10
2022-08-24T16:50:21.985Z,1.30
2022-08-24T16:52:55.521Z,1.37
2022-08-24T16:55:26.738Z,1.30
2022-08-24T16:57:55.962Z,1.47
2022-08-24T17:00:24.755Z,1.93
2022-08-24T17:02:52.972Z,1.27
2022-08-24T17:05:23.752Z,1.40
2022-08-24T17:07:52.038Z,1.40
2022-08-24T17:10:23.212Z,4.27
2022-08-24T17:12:51.669Z,1.53
2022-08-24T17:15:20.164Z,1.33
2022-08-24T17:17:56.315Z,2.80
2022-08-24T17:20:26.290Z,3.73
2022-08-24T17:22:56.137Z,3.27
2022-08-24T17:25:25.268Z,1.60
2022-08-24T17:27:54.769Z,1.40
2022-08-24T17:30:24.492Z,1.40
2022-08-24T17:32:53.827Z,1.90
2022-08-24T17:35:23.199Z,1.30
2022-08-24T17:37:53.888Z,1.10
2022-08-24T17:40:25.509Z,1.50
2022-08-24T17:42:54.225Z,2.40
2022-08-24T17:45:23.651Z,1.37
2022-08-24T17:47:52.984Z,1.60
2022-08-24T17:50:24.635Z,1.50
2022-08-24T17:52:56.355Z,1.60
2022-08-24T17:55:29.038Z,1.37
2022-08-24T17:57:57.960Z,1.30
2022-08-24T18:00:26.261Z,1.30
2022-08-24T18:02:54.441Z,1.60
2022-08-24T18:05:22.864Z,3.20
2022-08-24T18:07:55.202Z,1.40
2022-08-24T18:10:27.454Z,1.60
2022-08-24T18:12:55.888Z,2.57
2022-08-24T18:15:34.673Z,1.30
2022-08-24T18:18:08.780Z,1.50
2022-08-24T18:20:39.859Z,1.60
2022-08-24T18:23:11.163Z,1.27
2022-08-24T18:25:45.739Z,3.17
2022-08-24T18:28:15.330Z,1.30
2022-08-24T18:30:44.216Z,2.33
2022-08-24T18:33:12.297Z,1.77
2022-08-24T18:35:40.567Z,2.47
2022-08-24T18:38:10.060Z,1.33
2022-08-24T18:40:38.751Z,1.40
2022-08-24T18:43:08.120Z,1.40
2022-08-24T18:45:36.859Z,1.67
2022-08-24T18:48:05.607Z,1.40
2022-08-24T18:50:37.684Z,1.73
2022-08-24T18:53:10.184Z,1.20
2022-08-24T18:55:38.974Z,1.47
2022-08-24T18:58:07.592Z,1.60
2022-08-24T19:00:35.941Z,3.00
2022-08-24T19:03:06.647Z,2.90
2022-08-24T19:05:35.474Z,1.50
2022-08-24T19:08:04.218Z,1.60
2022-08-24T19:10:37.959Z,1.90
2022-08-24T19:13:10.383Z,1.60
2022-08-24T19:15:40.314Z,2.27
2022-08-24T19:18:10.877Z,1.43
2022-08-24T19:20:44.652Z,1.57
2022-08-24T19:23:22.385Z,1.77
2022-08-24T19:25:53.398Z,2.40
2022-08-24T19:28:22.473Z,1.60
2022-08-24T19:30:50.718Z,1.73
2022-08-24T19:33:25.636Z,2.50
2022-08-24T19:35:54.158Z,2.60
2022-08-24T19:38:26.036Z,1.87
2022-08-24T19:40:58.095Z,4.03
2022-08-24T19:43:27.360Z,1.37
2022-08-24T19:46:10.614Z,4.50
2022-08-24T19:48:40.297Z,1.50
2022-08-24T19:51:13.922Z,1.70
2022-08-24T19:53:42.898Z,1.40
2022-08-24T19:56:13.146Z,3.17
2022-08-24T19:58:47.059Z,1.80
2022-08-24T20:01:20.310Z,1.73
2022-08-24T20:03:48.615Z,4.20
2022-08-24T20:06:18.487Z,2.07
2022-08-24T20:08:49.250Z,2.37
2022-08-24T20:11:20.785Z,2.03
2022-08-24T20:13:53.646Z,2.83
2022-08-24T20:16:22.941Z,2.17
2022-08-24T20:18:51.082Z,3.50
2022-08-24T20:21:19.488Z,2.07
2022-08-24T20:23:49.673Z,2.10
2022-08-24T20:26:17.826Z,2.53
2022-08-24T20:28:50.791Z,2.07
2022-08-24T20:31:20.590Z,1.83
2022-08-24T20:33:57.719Z,5.80
2022-08-24T20:36:29.010Z,2.10
2022-08-24T20:39:01.268Z,2.03
2022-08-24T20:41:30.300Z,2.50
2022-08-24T20:44:01.521Z,1.50
2022-08-24T20:46:30.581Z,2.80
2022-08-24T20:48:59.791Z,2.40
2022-08-24T20:51:28.909Z,2.60
2022-08-24T20:53:57.493Z,2.73
2022-08-24T20:56:31.182Z,2.67
2022-08-24T20:59:02.831Z,2.70
2022-08-24T21:01:31.782Z,2.43
2022-08-24T21:04:04.866Z,2.07
2022-08-24T21:06:35.115Z,1.77
2022-08-24T21:09:05.176Z,2.17
2022-08-24T21:11:33.416Z,2.20
2022-08-24T21:14:05.558Z,3.17
2022-08-24T21:16:36.214Z,2.17
2022-08-24T21:19:05.135Z,2.23
2022-08-24T21:21:33.719Z,2.07
2022-08-24T21:24:03.228Z,1.90
2022-08-24T21:26:34.646Z,2.30
2022-08-24T21:29:06.155Z,2.17
2022-08-24T21:31:34.679Z,2.40
2022-08-24T21:34:20.779Z,4.00
2022-08-24T21:36:49.648Z,1.63
2022-08-24T21:39:20.850Z,2.10
2022-08-24T21:41:49.150Z,2.30
2022-08-24T21:44:18.665Z,2.13
2022-08-24T21:46:46.853Z,2.30
2022-08-24T21:49:15.214Z,3.27
2022-08-24T21:51:43.247Z,3.80
2022-08-24T21:54:11.616Z,2.57
2022-08-24T21:56:39.934Z,2.80
2022-08-24T21:59:08.464Z,2.70
2022-08-24T22:01:38.669Z,2.03
2022-08-24T22:04:08.012Z,1.67
2022-08-24T22:06:36.486Z,2.07
2022-08-24T22:09:05.296Z,3.10
2022-08-24T22:11:33.576Z,2.50
2022-08-24T22:14:03.367Z,1.40
2022-08-24T22:16:32.718Z,1.80
2022-08-24T22:19:07.013Z,1.67
2022-08-24T22:21:36.221Z,2.23
2022-08-24T22:24:05.263Z,1.63
2022-08-24T22:26:34.347Z,1.67
2022-08-24T22:29:02.943Z,2.57
2022-08-24T22:31:33.088Z,4.33
2022-08-24T22:34:04.070Z,2.00
2022-08-24T22:36:33.819Z,1.60
2022-08-24T22:39:02.787Z,1.80
2022-08-24T22:41:31.955Z,2.70
2022-08-24T22:44:18.839Z,1.73
2022-08-24T22:46:47.683Z,2.10
2022-08-24T22:49:15.956Z,1.60
2022-08-24T22:51:45.583Z,2.23
2022-08-24T22:54:14.227Z,1.63
2022-08-24T22:56:45.006Z,1.70
2022-08-24T22:59:17.642Z,2.00
2022-08-24T23:01:48.778Z,1.97
2022-08-24T23:04:19.457Z,1.97
2022-08-24T23:06:49.072Z,2.03
2022-08-24T23:09:17.577Z,2.30
2022-08-24T23:11:46.339Z,2.23
2022-08-24T23:14:15.814Z,1.60
2022-08-24T23:16:47.701Z,1.30
2022-08-24T23:19:53.678Z,1.83
2022-08-24T23:22:23.576Z,1.47
2022-08-24T23:24:53.971Z,1.93
2022-08-24T23:27:22.423Z,1.97
2022-08-24T23:29:50.806Z,1.80
2022-08-24T23:32:19.615Z,2.30
2022-08-24T23:34:48.152Z,1.63
2022-08-24T23:37:16.962Z,1.57
2022-08-24T23:39:46.521Z,1.93
2022-08-24T23:42:14.737Z,1.90
2022-08-24T23:44:42.960Z,1.27
2022-08-24T23:47:11.152Z,2.90
2022-08-24T23:49:41.727Z,1.57
2022-08-24T23:52:25.905Z,1.40
2022-08-24T23:55:11.596Z,1.83
2022-08-24T23:57:47.011Z,2.60
